Terminal Aerodrome Forecast
Issued by NWS Jackson, KY

Home | Current Version | Previous Version | Text Only | Print | Product List | Glossary On
Versions: 1 2 3 4 5 6 7 8 9 10 11 12 13 14 15 16 17 18 19 20 21
165
FTUS43 KJKL 132320
TAFJKL
TAF
KJKL 132320Z 1400/1424 VRB03KT P6SM FEW150
     FM141700 11005KT P6SM OVC040
     FM141900 11005KT 5SM -SN OVC030
     FM142200 11004KT 2SM -SN OVC010=

USA.gov is the U.S. government's official web portal to all federal, state and local government web resources and services.